Terminal Aerodrome Forecast
Issued by NWS

Home | Current Version | Previous Version | Text Only | Print | Product List | Glossary On
Versions: 1 2 3 4 5 6 7 8 9 10 11 12 13 14 15 16 17 18 19
633
FTUS43 KJKL 180932 AAA
TAFSJS
TAF AMD
KSJS 180932Z 1810/1906 VRB05KT 4SM -SHRA VCTS BKN020CB OVC040
     FM181300 VRB03KT P6SM VCSH OVC015
     FM181800 VRB05KT P6SM SCT025
     FM190300 VRB03KT P6SM SKC=

USA.gov is the U.S. government's official web portal to all federal, state and local government web resources and services.